createdAt,value
2018-09-17T00:00:01.520Z,24.08
2018-09-17T00:02:29.205Z,24.08
2018-09-17T00:04:56.892Z,24.10
2018-09-17T00:07:24.579Z,24.10
2018-09-17T00:09:52.258Z,24.08
2018-09-17T00:12:19.985Z,24.07
2018-09-17T00:14:47.676Z,24.08
2018-09-17T00:17:15.369Z,24.06
2018-09-17T00:19:43.070Z,24.06
2018-09-17T00:22:10.914Z,24.04
2018-09-17T00:24:38.621Z,24.04
2018-09-17T00:27:06.314Z,24.04
2018-09-17T00:29:34.068Z,24.05
2018-09-17T00:32:01.779Z,24.04
2018-09-17T00:34:29.521Z,24.05
2018-09-17T00:36:57.346Z,24.05
2018-09-17T00:39:25.017Z,24.04
2018-09-17T00:41:52.666Z,24.05
2018-09-17T00:44:21.290Z,24.04
2018-09-17T00:46:48.986Z,24.02
2018-09-17T00:49:16.697Z,24.04
2018-09-17T00:51:44.528Z,24.04
2018-09-17T00:54:12.197Z,24.04
2018-09-17T00:56:39.899Z,24.03
2018-09-17T00:59:07.597Z,24.04
2018-09-17T01:01:35.338Z,24.04
2018-09-17T01:04:03.081Z,24.02
2018-09-17T01:06:30.748Z,24.03
2018-09-17T01:08:58.484Z,24.03
2018-09-17T01:11:26.190Z,24.02
2018-09-17T01:13:53.893Z,24.01
2018-09-17T01:16:21.633Z,24.01
2018-09-17T01:18:49.536Z,23.99
2018-09-17T01:21:17.168Z,24.00
2018-09-17T01:23:44.816Z,23.99
2018-09-17T01:26:12.493Z,23.99
2018-09-17T01:28:40.209Z,23.99
2018-09-17T01:31:08.002Z,23.98
2018-09-17T01:33:35.773Z,23.99
2018-09-17T01:36:03.492Z,23.99
2018-09-17T01:38:31.200Z,23.99
2018-09-17T01:40:58.907Z,23.98
2018-09-17T01:43:26.676Z,23.97
2018-09-17T01:45:54.428Z,23.98
2018-09-17T01:48:22.148Z,23.96
2018-09-17T01:50:49.854Z,23.97
2018-09-17T01:53:17.557Z,23.97
2018-09-17T01:55:45.320Z,23.96
2018-09-17T01:58:13.129Z,23.95
2018-09-17T02:00:40.790Z,23.96
2018-09-17T02:03:08.646Z,23.96
2018-09-17T02:05:36.369Z,23.96
2018-09-17T02:08:04.097Z,23.95
2018-09-17T02:10:31.833Z,23.93
2018-09-17T02:12:59.537Z,23.95
2018-09-17T02:15:27.223Z,23.95
2018-09-17T02:17:54.928Z,23.94
2018-09-17T02:20:22.593Z,23.92
2018-09-17T02:22:50.303Z,23.93
2018-09-17T02:25:17.946Z,23.94
2018-09-17T02:27:45.710Z,23.93
2018-09-17T02:30:13.374Z,23.95
2018-09-17T02:32:41.046Z,23.94
2018-09-17T02:35:08.722Z,23.93
2018-09-17T02:37:36.393Z,23.93
2018-09-17T02:40:04.085Z,23.92
2018-09-17T02:42:31.721Z,23.92
2018-09-17T02:44:59.385Z,23.91
2018-09-17T02:47:27.062Z,23.90
2018-09-17T02:49:54.749Z,23.86
2018-09-17T02:52:22.471Z,23.89
2018-09-17T02:54:50.169Z,23.90
2018-09-17T02:57:17.850Z,23.88
2018-09-17T02:59:45.629Z,23.88
2018-09-17T03:02:13.364Z,23.89
2018-09-17T03:04:41.021Z,23.89
2018-09-17T03:07:08.676Z,23.89
2018-09-17T03:09:36.387Z,23.89
2018-09-17T03:12:04.044Z,23.89
2018-09-17T03:14:31.758Z,23.88
2018-09-17T03:17:05.534Z,23.88
2018-09-17T03:19:33.230Z,23.87
2018-09-17T03:22:00.860Z,23.87
2018-09-17T03:24:28.595Z,23.87
2018-09-17T03:26:56.305Z,23.86
2018-09-17T03:29:24.105Z,23.85
2018-09-17T03:31:51.876Z,23.86
2018-09-17T03:34:19.614Z,23.87
2018-09-17T03:36:47.348Z,23.86
2018-09-17T03:39:15.089Z,23.89
2018-09-17T03:41:42.829Z,23.87
2018-09-17T03:44:10.536Z,23.87
2018-09-17T03:46:38.318Z,23.85
2018-09-17T03:49:05.932Z,23.85
2018-09-17T03:51:33.683Z,23.85
2018-09-17T03:54:01.427Z,23.85
2018-09-17T03:56:29.116Z,23.85
2018-09-17T03:58:56.804Z,23.85
2018-09-17T04:01:24.724Z,23.83
2018-09-17T04:03:52.405Z,23.83
2018-09-17T04:09:06.445Z,23.81
2018-09-17T04:11:34.157Z,23.84
2018-09-17T04:14:01.908Z,23.84
2018-09-17T04:16:29.618Z,23.84
2018-09-17T04:18:57.514Z,23.85
2018-09-17T04:21:25.197Z,23.83
2018-09-17T04:23:52.889Z,23.82
2018-09-17T04:26:20.707Z,23.82
2018-09-17T04:28:48.882Z,23.80
2018-09-17T04:31:16.623Z,23.80
2018-09-17T04:33:44.544Z,23.80
2018-09-17T04:36:13.298Z,23.78
2018-09-17T04:38:41.063Z,23.80
2018-09-17T04:41:08.770Z,23.79
2018-09-17T04:43:36.632Z,23.81
2018-09-17T04:46:04.365Z,23.81
2018-09-17T04:48:32.370Z,23.80
2018-09-17T04:51:00.093Z,23.79
2018-09-17T04:53:27.830Z,23.78
2018-09-17T04:55:55.541Z,23.80
2018-09-17T04:58:23.325Z,23.79
2018-09-17T05:00:51.201Z,23.79
2018-09-17T05:03:19.149Z,23.78
2018-09-17T05:05:47.010Z,23.80
2018-09-17T05:08:14.801Z,23.79
2018-09-17T05:10:42.598Z,23.79
2018-09-17T05:13:10.384Z,23.79
2018-09-17T05:15:38.162Z,23.79
2018-09-17T05:18:05.946Z,23.79
2018-09-17T05:20:33.721Z,23.78
2018-09-17T05:23:01.562Z,23.78
2018-09-17T05:25:29.360Z,23.79
2018-09-17T05:27:57.178Z,23.77
2018-09-17T05:30:24.920Z,23.76
2018-09-17T05:32:52.724Z,23.76
2018-09-17T05:35:20.523Z,23.78
2018-09-17T05:37:48.370Z,23.76
2018-09-17T05:40:16.414Z,23.75
2018-09-17T05:42:44.216Z,23.75
2018-09-17T05:45:11.960Z,23.80
2018-09-17T05:47:39.709Z,23.19
2018-09-17T05:50:07.509Z,22.31
2018-09-17T05:52:35.320Z,22.30
2018-09-17T05:55:03.148Z,22.03
2018-09-17T05:57:30.907Z,21.97
2018-09-17T05:59:58.699Z,22.22
2018-09-17T06:02:26.442Z,21.96
2018-09-17T06:04:54.226Z,21.93
2018-09-17T06:07:21.974Z,21.89
2018-09-17T06:09:50.476Z,21.84
2018-09-17T06:12:18.456Z,21.76
2018-09-17T06:14:46.256Z,21.79
2018-09-17T06:17:14.085Z,21.85
2018-09-17T06:19:41.762Z,21.93
2018-09-17T06:22:09.474Z,22.05
2018-09-17T06:24:37.233Z,22.19
2018-09-17T06:27:04.989Z,22.26
2018-09-17T06:29:32.689Z,22.31
2018-09-17T06:32:00.437Z,22.25
2018-09-17T06:34:28.205Z,22.35
2018-09-17T06:39:23.575Z,22.30
2018-09-17T06:41:51.353Z,22.32
2018-09-17T06:44:19.047Z,22.31
2018-09-17T06:46:46.742Z,22.41
2018-09-17T06:49:14.514Z,22.38
2018-09-17T06:51:42.215Z,22.41
2018-09-17T06:54:09.916Z,22.40
2018-09-17T06:56:37.672Z,22.23
2018-09-17T06:59:05.337Z,22.17
2018-09-17T07:01:33.070Z,22.19
2018-09-17T07:04:00.804Z,22.09
2018-09-17T07:06:28.588Z,22.03
2018-09-17T07:08:56.349Z,22.10
2018-09-17T07:11:24.050Z,22.14
2018-09-17T07:13:51.754Z,22.12
2018-09-17T07:16:19.438Z,22.14
2018-09-17T07:18:47.298Z,22.32
2018-09-17T07:21:14.967Z,22.34
2018-09-17T07:23:42.601Z,22.36
2018-09-17T07:26:10.302Z,22.36
2018-09-17T07:28:37.947Z,22.59
2018-09-17T07:31:05.581Z,22.88
2018-09-17T07:33:33.216Z,22.70
2018-09-17T07:36:00.853Z,22.65
2018-09-17T07:38:28.520Z,22.87
2018-09-17T07:40:56.149Z,23.02
2018-09-17T07:43:24.457Z,22.94
2018-09-17T07:45:52.186Z,23.02
2018-09-17T07:48:19.828Z,23.13
2018-09-17T07:50:47.456Z,23.21
2018-09-17T07:53:15.131Z,23.30
2018-09-17T07:55:42.739Z,23.29
2018-09-17T07:58:10.412Z,23.30
2018-09-17T08:00:38.027Z,23.34
2018-09-17T08:03:06.018Z,23.57
2018-09-17T08:05:33.651Z,23.65
2018-09-17T08:08:01.288Z,23.75
2018-09-17T08:10:28.921Z,23.63
2018-09-17T08:12:56.569Z,23.73
2018-09-17T08:15:24.233Z,23.88
2018-09-17T08:17:52.692Z,23.85
2018-09-17T08:20:20.339Z,23.96
2018-09-17T08:22:48.134Z,23.99
2018-09-17T08:25:15.789Z,24.00
2018-09-17T08:27:43.456Z,24.04
2018-09-17T08:30:11.083Z,24.09
2018-09-17T08:32:38.717Z,24.12
2018-09-17T08:35:07.009Z,24.09
2018-09-17T08:37:34.634Z,24.16
2018-09-17T08:40:02.337Z,24.19
2018-09-17T08:42:29.986Z,24.25
2018-09-17T08:44:57.598Z,24.29
2018-09-17T08:47:25.216Z,24.24
2018-09-17T08:49:52.832Z,24.29
2018-09-17T08:52:20.502Z,24.19
2018-09-17T08:55:55.097Z,23.89
2018-09-17T08:58:25.594Z,23.78
2018-09-17T09:01:00.379Z,23.75
2018-09-17T09:04:33.260Z,23.77
2018-09-17T09:07:06.036Z,23.73
2018-09-17T09:09:33.725Z,23.73
2018-09-17T09:12:09.521Z,23.71
2018-09-17T09:14:40.228Z,23.72
2018-09-17T09:17:08.789Z,23.72
2018-09-17T09:19:36.476Z,23.72
2018-09-17T09:22:04.213Z,23.72
2018-09-17T09:24:31.836Z,23.75
2018-09-17T09:26:59.475Z,23.73
2018-09-17T09:29:27.148Z,23.75
2018-09-17T09:31:54.782Z,23.75
2018-09-17T09:34:22.445Z,23.76
2018-09-17T09:36:50.110Z,23.77
2018-09-17T09:39:17.745Z,23.78
2018-09-17T09:41:45.380Z,23.79
2018-09-17T09:44:13.114Z,23.80
2018-09-17T09:46:40.761Z,23.80
2018-09-17T09:49:08.430Z,23.79
2018-09-17T09:51:36.067Z,23.80
2018-09-17T09:54:03.737Z,23.81
2018-09-17T09:56:31.414Z,23.82
2018-09-17T09:58:59.077Z,23.83
2018-09-17T10:01:27.971Z,23.81
2018-09-17T10:04:01.124Z,23.85
2018-09-17T10:06:28.749Z,23.85
2018-09-17T10:09:01.925Z,23.84
2018-09-17T10:11:34.861Z,23.86
2018-09-17T10:14:08.117Z,23.83
2018-09-17T10:16:35.810Z,23.86
2018-09-17T10:19:08.937Z,23.87
2018-09-17T10:21:36.658Z,23.88
2018-09-17T10:24:04.649Z,23.89
2018-09-17T10:26:32.334Z,23.90
2018-09-17T10:29:01.095Z,23.90
2018-09-17T10:31:28.782Z,23.90
2018-09-17T10:33:56.497Z,23.90
2018-09-17T10:36:24.230Z,23.93
2018-09-17T10:38:51.890Z,23.93
2018-09-17T10:41:19.588Z,23.93
2018-09-17T10:43:47.239Z,23.95
2018-09-17T10:46:14.929Z,23.94
2018-09-17T10:48:42.628Z,23.93
2018-09-17T10:51:10.403Z,23.96
2018-09-17T10:53:38.102Z,23.93
2018-09-17T10:56:05.998Z,23.95
2018-09-17T10:58:33.660Z,23.97
2018-09-17T11:01:01.342Z,23.98
2018-09-17T11:03:29.029Z,23.97
2018-09-17T11:05:56.699Z,23.98
2018-09-17T11:08:24.473Z,24.02
2018-09-17T11:10:52.090Z,24.00
2018-09-17T11:13:19.811Z,24.01
2018-09-17T11:15:48.683Z,24.03
2018-09-17T11:18:17.333Z,24.03
2018-09-17T11:20:45.921Z,24.05
2018-09-17T11:23:13.563Z,24.04
2018-09-17T11:25:41.291Z,24.06
2018-09-17T11:28:08.940Z,24.05
2018-09-17T11:30:36.625Z,24.05
2018-09-17T11:33:04.253Z,24.01
2018-09-17T11:35:31.881Z,24.07
2018-09-17T11:37:59.525Z,24.09
2018-09-17T11:40:27.162Z,24.07
2018-09-17T11:42:54.790Z,24.10
2018-09-17T11:45:22.422Z,24.11
2018-09-17T11:47:50.066Z,24.11
2018-09-17T11:50:17.693Z,24.11
2018-09-17T11:52:45.337Z,24.10
2018-09-17T11:55:12.952Z,24.12
2018-09-17T11:57:40.599Z,24.13
2018-09-17T12:00:08.339Z,24.16
2018-09-17T12:02:36.701Z,24.16
2018-09-17T12:05:05.318Z,24.16
2018-09-17T12:07:35.367Z,24.17
2018-09-17T12:10:03.558Z,24.18
2018-09-17T12:12:31.288Z,24.18
2018-09-17T12:14:58.920Z,24.18
2018-09-17T12:17:26.544Z,24.18
2018-09-17T12:19:54.177Z,24.20
2018-09-17T12:22:21.835Z,24.21
2018-09-17T12:24:49.498Z,24.20
2018-09-17T12:27:17.216Z,24.20
2018-09-17T12:29:44.965Z,24.22
2018-09-17T12:32:12.733Z,24.24
2018-09-17T12:34:40.421Z,24.24
2018-09-17T12:37:08.126Z,24.26
2018-09-17T12:39:35.969Z,24.27
2018-09-17T12:42:03.697Z,24.27
2018-09-17T12:44:31.401Z,24.27
2018-09-17T12:46:59.129Z,24.29
2018-09-17T12:49:26.960Z,24.30
2018-09-17T12:51:54.805Z,24.29
2018-09-17T12:54:22.603Z,24.30
2018-09-17T12:56:50.306Z,24.33
2018-09-17T12:59:17.966Z,24.33
2018-09-17T13:01:45.756Z,24.36
2018-09-17T13:04:13.474Z,24.34
2018-09-17T13:06:41.298Z,24.33
2018-09-17T13:09:10.110Z,24.32
2018-09-17T13:11:37.844Z,24.35
2018-09-17T13:14:05.643Z,24.35
2018-09-17T13:16:33.469Z,24.36
2018-09-17T13:19:01.273Z,24.36
2018-09-17T13:21:29.052Z,24.35
2018-09-17T13:23:56.772Z,24.37
2018-09-17T13:26:24.562Z,24.40
2018-09-17T13:28:52.293Z,24.41
2018-09-17T13:31:20.053Z,24.42
2018-09-17T13:33:47.833Z,24.45
2018-09-17T13:36:15.604Z,24.45
2018-09-17T13:38:43.389Z,24.48
2018-09-17T13:41:11.250Z,24.45
2018-09-17T13:43:39.048Z,24.45
2018-09-17T13:46:07.231Z,24.48
2018-09-17T13:48:34.929Z,24.49
2018-09-17T13:51:02.773Z,24.49
2018-09-17T13:53:30.602Z,24.48
2018-09-17T13:55:58.347Z,24.30
2018-09-17T13:58:26.045Z,24.48
2018-09-17T14:00:53.803Z,24.49
2018-09-17T14:03:21.853Z,24.48
2018-09-17T14:05:49.586Z,24.48
2018-09-17T14:08:17.378Z,24.48
2018-09-17T14:10:45.214Z,24.48
2018-09-17T14:13:12.992Z,24.49
2018-09-17T14:15:44.916Z,24.48
2018-09-17T14:18:12.725Z,24.49
2018-09-17T14:20:40.497Z,24.49
2018-09-17T14:23:08.396Z,24.51
2018-09-17T14:25:36.134Z,24.51
2018-09-17T14:28:03.883Z,24.51
2018-09-17T14:30:31.671Z,24.51
2018-09-17T14:33:04.752Z,24.52
2018-09-17T14:35:33.078Z,24.50
2018-09-17T14:38:00.785Z,24.51
2018-09-17T14:40:28.549Z,24.53
2018-09-17T14:42:56.338Z,24.53
2018-09-17T14:45:24.143Z,24.53
2018-09-17T14:47:51.854Z,24.55
2018-09-17T14:50:19.607Z,24.54
2018-09-17T14:52:47.413Z,24.54
2018-09-17T14:55:15.163Z,24.54
2018-09-17T14:57:43.346Z,24.55
2018-09-17T15:00:11.102Z,24.54
2018-09-17T15:02:38.849Z,24.56
2018-09-17T15:05:07.449Z,24.56
2018-09-17T15:07:35.273Z,24.57
2018-09-17T15:10:03.030Z,24.58
2018-09-17T15:12:30.855Z,24.58
2018-09-17T15:14:58.656Z,24.59
2018-09-17T15:17:26.418Z,24.59
2018-09-17T15:19:54.099Z,24.59
2018-09-17T15:22:21.836Z,24.59
2018-09-17T15:24:49.456Z,24.61
2018-09-17T15:27:17.185Z,24.58
2018-09-17T15:29:44.874Z,24.59
2018-09-17T15:32:12.547Z,24.60
2018-09-17T15:34:40.163Z,24.59
2018-09-17T15:37:07.831Z,24.60
2018-09-17T15:39:35.535Z,24.61
2018-09-17T15:42:03.288Z,24.61
2018-09-17T15:44:30.952Z,24.60
2018-09-17T15:46:58.653Z,24.59
2018-09-17T15:49:26.257Z,24.61
2018-09-17T15:51:53.989Z,24.60
2018-09-17T15:54:21.625Z,24.59
2018-09-17T15:56:49.253Z,24.59
2018-09-17T15:59:16.961Z,24.60
2018-09-17T16:01:44.667Z,24.61
2018-09-17T16:04:12.297Z,24.58
2018-09-17T16:06:39.949Z,24.58
2018-09-17T16:09:07.685Z,24.59
2018-09-17T16:11:36.256Z,24.60
2018-09-17T16:14:03.951Z,24.59
2018-09-17T16:16:31.687Z,24.58
2018-09-17T16:18:59.419Z,24.59
2018-09-17T16:21:27.129Z,24.59
2018-09-17T16:23:54.791Z,24.60
2018-09-17T16:26:22.541Z,24.59
2018-09-17T16:28:50.195Z,24.52
2018-09-17T16:31:17.829Z,24.57
2018-09-17T16:33:45.587Z,24.57
2018-09-17T16:36:13.219Z,24.57
2018-09-17T16:38:40.865Z,24.58
2018-09-17T16:41:08.517Z,24.58
2018-09-17T16:43:36.413Z,24.57
2018-09-17T16:46:04.169Z,24.58
2018-09-17T16:48:31.786Z,24.57
2018-09-17T16:50:59.425Z,24.58
2018-09-17T16:53:27.211Z,24.58
2018-09-17T16:55:54.825Z,24.56
2018-09-17T16:58:22.480Z,24.56
2018-09-17T17:00:50.136Z,24.56
2018-09-17T17:03:17.849Z,24.55
2018-09-17T17:05:45.588Z,24.55
2018-09-17T17:08:13.226Z,24.55
2018-09-17T17:10:40.884Z,24.54
2018-09-17T17:13:08.553Z,24.56
2018-09-17T17:15:36.319Z,24.55
2018-09-17T17:18:04.139Z,24.52
2018-09-17T17:20:31.808Z,24.53
2018-09-17T17:22:59.554Z,24.53
2018-09-17T17:25:27.216Z,24.52
2018-09-17T17:27:55.013Z,24.51
2018-09-17T17:30:22.702Z,24.49
2018-09-17T17:32:50.418Z,24.51
2018-09-17T17:35:18.105Z,24.50
2018-09-17T17:37:45.738Z,24.49
2018-09-17T17:40:13.484Z,24.50
2018-09-17T17:42:41.178Z,24.50
2018-09-17T17:45:08.854Z,24.48
2018-09-17T17:47:36.547Z,24.50
2018-09-17T17:50:04.365Z,24.49
2018-09-17T17:52:32.022Z,24.48
2018-09-17T17:54:59.662Z,24.48
2018-09-17T17:57:27.341Z,24.48
2018-09-17T17:59:55.023Z,24.49
2018-09-17T18:02:23.955Z,24.48
2018-09-17T18:04:51.720Z,24.47
2018-09-17T18:07:19.371Z,24.47
2018-09-17T18:09:47.100Z,24.48
2018-09-17T18:12:14.800Z,24.48
2018-09-17T18:14:42.577Z,24.45
2018-09-17T18:17:10.325Z,24.46
2018-09-17T18:19:38.197Z,24.46
2018-09-17T18:22:05.970Z,24.47
2018-09-17T18:24:33.711Z,24.45
2018-09-17T18:27:01.438Z,24.46
2018-09-17T18:29:29.138Z,24.40
2018-09-17T18:31:57.129Z,24.45
2018-09-17T18:34:24.861Z,24.46
2018-09-17T18:36:52.574Z,24.45
2018-09-17T18:39:20.531Z,24.45
2018-09-17T18:41:48.190Z,24.44
2018-09-17T18:44:22.571Z,24.45
2018-09-17T18:46:50.261Z,24.44
2018-09-17T18:49:17.984Z,24.45
2018-09-17T18:51:45.714Z,24.44
2018-09-17T18:54:13.486Z,24.43
2018-09-17T18:56:41.313Z,24.44
2018-09-17T18:59:09.010Z,24.44
2018-09-17T19:01:36.845Z,24.42
2018-09-17T19:04:04.612Z,24.43
2018-09-17T19:06:32.265Z,24.42
2018-09-17T19:09:00.034Z,24.42
2018-09-17T19:11:27.765Z,24.43
2018-09-17T19:14:00.839Z,24.40
2018-09-17T19:16:33.829Z,24.41
2018-09-17T19:19:01.602Z,24.43
2018-09-17T19:21:34.641Z,24.40
2018-09-17T19:24:04.621Z,24.40
2018-09-17T19:26:32.303Z,24.40
2018-09-17T19:29:05.359Z,24.40
2018-09-17T19:31:33.118Z,24.39
2018-09-17T19:34:00.998Z,24.41
2018-09-17T19:36:28.685Z,24.40
2018-09-17T19:39:01.685Z,24.40
2018-09-17T19:41:29.495Z,24.37
2018-09-17T19:43:57.434Z,24.38
2018-09-17T19:46:25.172Z,24.37
2018-09-17T19:48:52.958Z,24.37
2018-09-17T19:51:26.147Z,24.38
2018-09-17T19:53:53.809Z,24.38
2018-09-17T19:56:21.670Z,24.37
2018-09-17T19:58:54.730Z,24.36
2018-09-17T20:01:22.445Z,24.37
2018-09-17T20:03:50.219Z,24.37
2018-09-17T20:06:24.181Z,24.37
2018-09-17T20:08:51.934Z,24.36
2018-09-17T20:11:19.638Z,24.36
2018-09-17T20:13:47.325Z,24.37
2018-09-17T20:16:15.091Z,24.36
2018-09-17T20:18:42.816Z,24.36
2018-09-17T20:21:10.519Z,24.37
2018-09-17T20:23:38.289Z,24.36
2018-09-17T20:26:06.014Z,24.36
2018-09-17T20:28:33.780Z,24.35
2018-09-17T20:31:01.541Z,24.34
2018-09-17T20:33:32.974Z,24.34
2018-09-17T20:36:00.858Z,24.33
2018-09-17T20:38:28.761Z,24.34
2018-09-17T20:40:56.911Z,24.34
2018-09-17T20:43:24.771Z,24.33
2018-09-17T20:45:52.573Z,24.32
2018-09-17T20:48:20.620Z,24.31
2018-09-17T20:50:48.582Z,24.31
2018-09-17T20:53:16.260Z,24.30
2018-09-17T20:55:44.074Z,24.31
2018-09-17T20:58:11.868Z,24.32
2018-09-17T21:00:39.578Z,24.31
2018-09-17T21:03:07.249Z,24.30
2018-09-17T21:05:35.063Z,24.31
2018-09-17T21:08:02.757Z,24.31
2018-09-17T21:10:30.486Z,24.31
2018-09-17T21:12:58.228Z,24.30
2018-09-17T21:15:25.922Z,24.31
2018-09-17T21:17:53.657Z,24.29
2018-09-17T21:20:21.337Z,24.29
2018-09-17T21:22:49.019Z,24.29
2018-09-17T21:25:16.817Z,24.29
2018-09-17T21:27:44.497Z,24.29
2018-09-17T21:30:12.242Z,24.28
2018-09-17T21:32:40.048Z,24.29
2018-09-17T21:35:07.769Z,24.28
2018-09-17T21:37:35.445Z,24.29
2018-09-17T21:40:03.162Z,24.27
2018-09-17T21:42:30.896Z,24.27
2018-09-17T21:44:58.623Z,24.26
2018-09-17T21:47:26.358Z,24.27
2018-09-17T21:49:54.076Z,24.26
2018-09-17T21:52:21.933Z,24.27
2018-09-17T21:54:49.599Z,24.26
2018-09-17T21:57:17.349Z,24.27
2018-09-17T21:59:45.063Z,24.26
2018-09-17T22:02:12.870Z,24.26
2018-09-17T22:04:40.723Z,24.26
2018-09-17T22:07:08.454Z,24.26
2018-09-17T22:09:36.202Z,24.25
2018-09-17T22:12:03.866Z,24.26
2018-09-17T22:14:31.532Z,24.25
2018-09-17T22:16:59.252Z,24.27
2018-09-17T22:19:26.940Z,24.25
2018-09-17T22:21:54.681Z,24.24
2018-09-17T22:24:22.490Z,24.25
2018-09-17T22:26:50.203Z,24.26
2018-09-17T22:29:17.932Z,24.24
2018-09-17T22:31:45.631Z,24.25
2018-09-17T22:34:13.348Z,24.24
2018-09-17T22:36:41.033Z,24.24
2018-09-17T22:39:09.333Z,24.23
2018-09-17T22:41:37.262Z,24.24
2018-09-17T22:44:05.025Z,24.21
2018-09-17T22:46:32.729Z,24.22
2018-09-17T22:49:00.454Z,24.21
2018-09-17T22:51:28.203Z,24.21
2018-09-17T22:53:55.882Z,24.20
2018-09-17T22:56:23.552Z,24.20
2018-09-17T22:58:51.270Z,24.20
2018-09-17T23:01:19.004Z,24.21
2018-09-17T23:03:46.750Z,24.19
2018-09-17T23:06:14.441Z,24.19
2018-09-17T23:08:42.133Z,24.19
2018-09-17T23:11:09.895Z,24.19
2018-09-17T23:13:37.617Z,24.19
2018-09-17T23:16:05.333Z,24.18
2018-09-17T23:18:33.018Z,24.18
2018-09-17T23:21:00.720Z,24.19
2018-09-17T23:23:28.450Z,24.18
2018-09-17T23:25:56.191Z,24.17
2018-09-17T23:28:23.994Z,24.17
2018-09-17T23:30:51.798Z,24.18
2018-09-17T23:33:19.603Z,24.16
2018-09-17T23:35:47.352Z,24.17
2018-09-17T23:38:15.082Z,24.16
2018-09-17T23:40:42.785Z,24.16
2018-09-17T23:43:10.495Z,24.16
2018-09-17T23:45:38.224Z,24.16
2018-09-17T23:48:06.157Z,24.15
2018-09-17T23:50:33.888Z,24.14
2018-09-17T23:53:01.650Z,24.15
2018-09-17T23:55:29.312Z,24.14
2018-09-17T23:57:57.065Z,24.13
